Time;durP1;ratioP1;P1;durP2;ratioP2;P2;SDS_P1;SDS_P2;PMS_P1;PMS_P2;Temp;Humidity;BMP_temperature;BMP_pressure;BME280_temperature;BME280_humidity;BME280_pressure;Samples;Min_cycle;Max_cycle;Signal;HPM_P1;HPM_P2
2023/05/03 00:00:25;;;;;;;9.23;3.90;;;11.10;99.90;;;;;;5095316;28;20197;-74
2023/05/03 00:02:52;;;;;;;8.50;3.80;;;11.00;99.90;;;;;;5113751;28;20613;-76
2023/05/03 00:05:18;;;;;;;8.27;4.00;;;11.00;99.90;;;;;;5094746;28;20175;-76
2023/05/03 00:07:45;;;;;;;7.73;3.33;;;10.90;99.90;;;;;;5095768;28;20547;-75
2023/05/03 00:10:14;;;;;;;8.63;3.13;;;10.90;99.90;;;;;;5113948;28;20170;-76
2023/05/03 00:12:41;;;;;;;8.13;3.33;;;10.80;99.90;;;;;;5097777;28;20627;-76
2023/05/03 00:15:08;;;;;;;9.03;3.67;;;10.90;99.90;;;;;;5115695;28;20580;-75
2023/05/03 00:17:34;;;;;;;9.57;3.50;;;10.80;99.90;;;;;;5134071;28;20460;-75
2023/05/03 00:20:00;;;;;;;7.80;3.40;;;10.60;99.90;;;;;;5133713;28;20763;-75
2023/05/03 00:22:26;;;;;;;9.07;3.70;;;10.60;99.90;;;;;;5115059;28;20193;-75
2023/05/03 00:24:52;;;;;;;9.93;3.63;;;10.60;99.90;;;;;;5115274;28;20176;-76
2023/05/03 00:27:18;;;;;;;6.50;3.30;;;10.70;99.90;;;;;;5133955;28;20168;-76
2023/05/03 00:29:45;;;;;;;6.47;3.90;;;10.60;99.90;;;;;;5114975;28;20278;-76
2023/05/03 00:32:11;;;;;;;5.73;3.60;;;10.50;99.90;;;;;;5115419;28;20182;-75
2023/05/03 00:34:37;;;;;;;5.97;3.50;;;10.60;99.90;;;;;;5132673;28;20177;-75
2023/05/03 00:37:04;;;;;;;9.53;3.30;;;10.70;99.90;;;;;;5115369;28;20205;-76
2023/05/03 00:39:30;;;;;;;4.27;3.37;;;10.60;99.90;;;;;;5115401;28;20703;-75
2023/05/03 00:42:00;;;;;;;8.20;3.63;;;10.40;99.90;;;;;;5115330;28;20188;-75
2023/05/03 00:44:26;;;;;;;7.23;4.03;;;10.50;99.90;;;;;;5114629;28;20210;-75
2023/05/03 00:46:51;;;;;;;9.10;3.83;;;10.40;99.90;;;;;;5115308;28;20209;-75
2023/05/03 00:49:18;;;;;;;8.97;4.07;;;10.30;99.90;;;;;;5115097;28;20549;-75
2023/05/03 00:51:43;;;;;;;10.10;4.23;;;10.20;99.90;;;;;;5115493;28;20178;-76
2023/05/03 00:54:11;;;;;;;6.03;3.90;;;10.10;99.90;;;;;;5114861;28;20192;-75
2023/05/03 00:56:38;;;;;;;6.83;3.70;;;10.00;99.90;;;;;;5133660;28;20165;-75
2023/05/03 00:59:05;;;;;;;8.63;4.13;;;10.10;99.90;;;;;;5114778;28;20206;-75
2023/05/03 01:01:31;;;;;;;8.13;3.97;;;10.00;99.90;;;;;;5133353;28;20170;-74
2023/05/03 01:04:02;;;;;;;9.60;3.93;;;9.90;99.90;;;;;;5133715;27;20290;-74
2023/05/03 01:06:38;;;;;;;10.43;3.60;;;9.80;99.90;;;;;;5118487;27;20173;-75
2023/05/03 01:09:17;;;;;;;9.63;4.73;;;9.80;99.90;;;;;;5111259;28;20189;-76
2023/05/03 01:12:07;;;;;;;7.00;4.17;;;9.80;99.90;;;;;;5098269;28;20189;-76
2023/05/03 01:15:00;;;;;;;6.43;4.13;;;9.80;99.90;;;;;;5098365;28;20682;-76
2023/05/03 01:17:47;;;;;;;7.47;3.57;;;9.80;99.90;;;;;;5059842;28;20273;-75
2023/05/03 01:20:16;;;;;;;11.37;3.80;;;9.70;99.90;;;;;;5097620;28;20214;-76
2023/05/03 01:22:49;;;;;;;8.83;4.43;;;9.70;99.90;;;;;;5116552;28;20158;-75
2023/05/03 01:25:15;;;;;;;7.73;3.67;;;9.60;99.90;;;;;;5116244;28;20261;-75
2023/05/03 01:27:42;;;;;;;8.37;3.67;;;9.60;99.90;;;;;;5111055;27;20200;-76
2023/05/03 01:30:10;;;;;;;10.10;3.93;;;9.60;99.90;;;;;;5118447;27;20189;-75
2023/05/03 01:32:48;;;;;;;6.33;4.07;;;9.50;99.90;;;;;;5116587;27;20189;-76
2023/05/03 01:35:30;;;;;;;6.97;3.87;;;9.50;99.90;;;;;;5097889;28;20490;-75
2023/05/03 01:37:57;;;;;;;13.70;4.60;;;9.50;99.90;;;;;;5115964;28;20159;-75
2023/05/03 01:40:25;;;;;;;6.50;3.77;;;9.50;99.90;;;;;;5115839;28;20197;-76
2023/05/03 01:42:52;;;;;;;9.33;3.93;;;9.50;99.90;;;;;;5097535;27;20170;-76
2023/05/03 01:45:19;;;;;;;8.23;3.80;;;9.50;99.90;;;;;;5098667;28;20176;-76
2023/05/03 01:47:44;;;;;;;6.53;4.57;;;9.50;99.90;;;;;;5097482;28;20174;-75
2023/05/03 01:50:10;;;;;;;7.87;4.00;;;9.50;99.90;;;;;;5115893;28;20198;-75
2023/05/03 01:52:36;;;;;;;9.63;4.03;;;9.40;99.90;;;;;;5115438;28;20575;-75
2023/05/03 01:55:02;;;;;;;7.10;3.70;;;9.40;99.90;;;;;;5097426;28;20178;-75
2023/05/03 01:57:27;;;;;;;5.87;3.60;;;9.50;99.90;;;;;;5115869;28;20174;-74
2023/05/03 01:59:53;;;;;;;9.23;4.40;;;9.40;99.90;;;;;;5115896;28;20556;-75
2023/05/03 02:02:19;;;;;;;6.53;3.80;;;9.50;99.90;;;;;;5097357;28;20170;-76
2023/05/03 02:04:45;;;;;;;6.57;4.20;;;9.40;99.90;;;;;;5097269;28;20170;-76
2023/05/03 02:07:11;;;;;;;6.10;3.43;;;9.40;99.90;;;;;;5097486;28;20248;-76
2023/05/03 02:09:38;;;;;;;9.77;4.23;;;9.30;99.90;;;;;;5097222;28;20221;-75
2023/05/03 02:12:04;;;;;;;9.67;4.30;;;9.40;99.90;;;;;;5097016;28;20170;-75
2023/05/03 02:14:31;;;;;;;10.40;3.70;;;9.40;99.90;;;;;;5096804;28;20178;-75
2023/05/03 02:16:57;;;;;;;9.93;3.90;;;9.40;99.90;;;;;;5096030;28;20165;-74
2023/05/03 02:19:23;;;;;;;5.17;3.80;;;9.20;99.90;;;;;;5115094;28;20614;-76
2023/05/03 02:21:49;;;;;;;9.80;4.27;;;9.20;99.90;;;;;;5114924;28;20220;-78
2023/05/03 02:24:15;;;;;;;13.03;4.10;;;9.20;99.90;;;;;;5115474;27;20170;-77
2023/05/03 02:26:41;;;;;;;5.83;3.67;;;9.10;99.90;;;;;;5096817;28;20264;-78
2023/05/03 02:29:08;;;;;;;7.50;3.87;;;9.00;99.90;;;;;;5096984;28;20264;-77
2023/05/03 02:31:35;;;;;;;7.63;3.80;;;8.90;99.90;;;;;;5126134;27;20609;-77
2023/05/03 02:34:02;;;;;;;12.23;4.37;;;8.90;99.90;;;;;;5097635;28;20185;-77
2023/05/03 02:36:28;;;;;;;9.63;4.13;;;8.80;99.90;;;;;;5114713;28;20252;-76
2023/05/03 02:38:54;;;;;;;7.67;4.17;;;8.80;99.90;;;;;;5114724;28;20300;-78
2023/05/03 02:41:20;;;;;;;6.53;3.80;;;8.70;99.90;;;;;;5096146;28;20584;-77
2023/05/03 02:43:46;;;;;;;7.00;4.23;;;8.80;99.90;;;;;;5095943;28;20205;-76
2023/05/03 02:46:11;;;;;;;5.73;3.90;;;8.70;99.90;;;;;;5096318;28;20166;-77
2023/05/03 02:48:37;;;;;;;9.23;3.87;;;8.70;99.90;;;;;;5095905;28;20182;-77
2023/05/03 02:51:02;;;;;;;9.27;3.60;;;8.70;99.90;;;;;;5096075;28;20246;-76
2023/05/03 02:53:31;;;;;;;5.90;4.00;;;8.60;99.90;;;;;;5114244;28;20159;-76
2023/05/03 02:55:57;;;;;;;5.60;3.50;;;8.60;99.90;;;;;;5114478;28;20157;-78
2023/05/03 02:58:23;;;;;;;8.70;4.10;;;8.60;99.90;;;;;;5095765;28;20178;-78
2023/05/03 03:00:48;;;;;;;6.40;4.07;;;8.50;99.90;;;;;;5095660;28;20197;-76
2023/05/03 03:03:15;;;;;;;8.70;3.93;;;8.60;99.90;;;;;;5096050;28;20170;-77
2023/05/03 03:05:40;;;;;;;7.93;4.20;;;8.50;99.90;;;;;;5096180;28;20212;-77
2023/05/03 03:08:06;;;;;;;8.00;4.10;;;8.50;99.90;;;;;;5113873;28;20293;-76
2023/05/03 03:10:32;;;;;;;7.47;4.33;;;8.70;99.90;;;;;;5095823;28;20173;-78
2023/05/03 03:12:57;;;;;;;7.87;4.10;;;8.60;99.90;;;;;;5095820;28;20181;-78
2023/05/03 03:15:23;;;;;;;8.07;3.87;;;8.50;99.90;;;;;;5095588;28;20189;-77
2023/05/03 03:17:49;;;;;;;8.90;3.77;;;8.40;99.90;;;;;;5114144;28;20189;-77
2023/05/03 03:20:14;;;;;;;9.73;4.00;;;8.30;99.90;;;;;;5095572;28;20197;-77
2023/05/03 03:22:42;;;;;;;7.07;4.23;;;8.30;99.90;;;;;;5095739;28;20174;-77
2023/05/03 03:25:09;;;;;;;5.67;3.73;;;8.20;99.90;;;;;;5095440;28;20176;-77
2023/05/03 03:27:34;;;;;;;7.10;3.97;;;8.20;99.90;;;;;;5130123;27;20192;-77
2023/05/03 03:30:00;;;;;;;7.73;4.40;;;8.20;99.90;;;;;;5134459;27;20180;-77
2023/05/03 03:32:26;;;;;;;5.63;4.17;;;8.10;99.90;;;;;;5102021;28;20213;-77
2023/05/03 03:34:51;;;;;;;9.53;3.97;;;8.10;99.90;;;;;;5114152;28;20165;-76
2023/05/03 03:37:20;;;;;;;9.90;3.97;;;8.00;99.90;;;;;;5095950;28;20186;-77
2023/05/03 03:39:47;;;;;;;9.00;3.97;;;7.90;99.90;;;;;;5113798;28;20247;-77
2023/05/03 03:42:14;;;;;;;6.27;4.03;;;7.90;99.90;;;;;;5095504;28;20192;-76
2023/05/03 03:44:39;;;;;;;6.90;3.87;;;7.90;99.90;;;;;;5095309;28;20539;-77
2023/05/03 03:47:05;;;;;;;6.83;4.53;;;7.90;99.90;;;;;;5112219;27;20428;-78
2023/05/03 03:49:31;;;;;;;8.37;4.23;;;8.00;99.90;;;;;;5115638;28;20630;-78
2023/05/03 03:51:57;;;;;;;7.43;3.60;;;7.90;99.90;;;;;;5129326;27;20173;-78
2023/05/03 03:54:22;;;;;;;7.77;4.00;;;7.90;99.90;;;;;;5116895;27;20192;-78
2023/05/03 03:56:49;;;;;;;8.27;4.60;;;7.90;99.90;;;;;;5115953;27;20203;-77
2023/05/03 03:59:15;;;;;;;7.73;4.97;;;7.90;99.90;;;;;;5115995;27;20244;-77
2023/05/03 04:01:41;;;;;;;6.20;4.73;;;7.90;99.90;;;;;;5115869;28;20587;-77
2023/05/03 04:04:06;;;;;;;8.77;5.10;;;7.80;99.90;;;;;;5133823;28;20209;-77
2023/05/03 04:06:32;;;;;;;7.43;4.70;;;7.80;99.90;;;;;;5115856;28;20161;-77
2023/05/03 04:08:57;;;;;;;8.87;4.53;;;7.90;99.90;;;;;;5134175;28;20266;-77
2023/05/03 04:11:23;;;;;;;7.83;5.10;;;7.90;99.90;;;;;;5133806;28;20573;-76
2023/05/03 04:13:50;;;;;;;8.33;4.43;;;8.00;99.90;;;;;;5133968;28;20180;-76
2023/05/03 04:16:16;;;;;;;12.37;4.90;;;7.90;99.90;;;;;;5115782;28;20637;-76
2023/05/03 04:18:41;;;;;;;7.50;4.77;;;7.90;99.90;;;;;;5134515;28;20164;-77
2023/05/03 04:21:07;;;;;;;8.40;4.90;;;7.80;99.90;;;;;;5116568;28;20511;-76
2023/05/03 04:23:33;;;;;;;10.00;4.50;;;7.90;99.90;;;;;;5119029;28;20211;-76
2023/05/03 04:25:58;;;;;;;10.83;4.73;;;7.80;99.90;;;;;;5095202;28;20184;-76
2023/05/03 04:28:25;;;;;;;10.30;5.30;;;7.90;99.90;;;;;;5113464;28;20198;-77
2023/05/03 04:30:52;;;;;;;8.47;4.20;;;7.70;99.90;;;;;;5122779;28;20169;-78
2023/05/03 04:33:19;;;;;;;9.87;5.37;;;7.80;99.90;;;;;;5095300;28;20246;-76
2023/05/03 04:35:50;;;;;;;8.53;4.67;;;7.80;99.90;;;;;;5113473;28;20681;-77
2023/05/03 04:38:18;;;;;;;7.27;4.87;;;7.80;99.90;;;;;;5113903;28;20171;-79
2023/05/03 04:40:45;;;;;;;11.13;4.90;;;7.80;99.90;;;;;;5099124;28;20202;-77
2023/05/03 04:43:11;;;;;;;9.67;5.07;;;7.80;99.90;;;;;;5117426;28;20169;-78
2023/05/03 04:45:39;;;;;;;12.50;5.60;;;7.90;99.90;;;;;;5098745;28;20623;-77
2023/05/03 04:48:05;;;;;;;10.10;4.97;;;7.90;99.90;;;;;;5099000;28;20192;-77
2023/05/03 04:50:32;;;;;;;13.23;5.40;;;7.90;99.90;;;;;;5117303;27;20605;-77
2023/05/03 04:52:58;;;;;;;13.03;5.67;;;8.00;99.90;;;;;;5116482;28;20185;-77
2023/05/03 04:55:23;;;;;;;9.37;4.67;;;7.90;99.90;;;;;;5098506;28;20696;-77
2023/05/03 04:57:49;;;;;;;10.50;5.43;;;7.90;99.90;;;;;;5117557;28;20260;-77
2023/05/03 05:00:15;;;;;;;9.77;5.17;;;7.90;99.90;;;;;;5134167;27;20262;-77
2023/05/03 05:02:41;;;;;;;9.73;4.97;;;7.80;99.90;;;;;;5122947;27;20187;-77
2023/05/03 05:05:08;;;;;;;9.80;4.90;;;7.90;99.90;;;;;;5098393;28;20174;-77
2023/05/03 05:07:34;;;;;;;14.47;5.27;;;8.00;99.90;;;;;;5098847;28;20178;-77
2023/05/03 05:09:59;;;;;;;10.00;5.17;;;8.10;99.90;;;;;;5116753;28;20177;-78
2023/05/03 05:12:26;;;;;;;9.27;5.33;;;8.20;99.90;;;;;;5119883;27;20214;-76
2023/05/03 05:14:51;;;;;;;8.70;5.17;;;8.30;99.90;;;;;;5127983;27;20611;-76
2023/05/03 05:17:17;;;;;;;10.70;5.47;;;8.20;99.90;;;;;;5136786;27;20192;-76
2023/05/03 05:19:43;;;;;;;7.93;5.30;;;8.50;99.90;;;;;;5137030;27;20442;-76
2023/05/03 05:22:08;;;;;;;10.43;5.13;;;8.40;99.90;;;;;;5118543;27;20615;-76
2023/05/03 05:24:35;;;;;;;8.20;5.80;;;8.50;99.90;;;;;;5136736;27;20177;-76
2023/05/03 05:27:01;;;;;;;7.30;5.00;;;8.40;99.90;;;;;;5119151;27;20161;-77
2023/05/03 05:29:27;;;;;;;8.80;5.87;;;8.40;99.90;;;;;;5136300;27;20656;-77
2023/05/03 05:31:53;;;;;;;9.10;5.10;;;8.40;99.90;;;;;;5132924;27;20174;-77
2023/05/03 05:34:22;;;;;;;10.77;5.57;;;8.40;99.90;;;;;;5098079;28;20264;-77
2023/05/03 05:36:49;;;;;;;9.47;5.60;;;8.40;99.90;;;;;;5098476;28;20166;-77
2023/05/03 05:39:15;;;;;;;10.03;5.60;;;8.40;99.90;;;;;;5115813;27;20196;-77
2023/05/03 05:41:40;;;;;;;11.67;5.50;;;8.50;99.90;;;;;;5118971;27;20176;-77
2023/05/03 05:44:06;;;;;;;12.53;6.40;;;8.60;99.90;;;;;;5118983;27;20165;-77
2023/05/03 05:46:32;;;;;;;10.10;6.07;;;8.50;99.90;;;;;;5136652;27;20193;-76
2023/05/03 05:48:58;;;;;;;8.53;5.43;;;8.60;99.90;;;;;;5118942;27;20274;-77
2023/05/03 05:51:25;;;;;;;11.97;6.00;;;8.60;99.90;;;;;;5135570;27;20178;-77
2023/05/03 05:53:52;;;;;;;11.63;6.13;;;8.70;99.90;;;;;;5119061;27;20375;-77
2023/05/03 05:56:17;;;;;;;11.73;5.80;;;8.70;99.90;;;;;;5108934;27;20943;-76
2023/05/03 05:58:46;;;;;;;15.50;5.90;;;8.70;99.90;;;;;;5091933;28;20177;-75
2023/05/03 06:01:14;;;;;;;9.27;5.80;;;8.80;99.90;;;;;;5097950;27;20712;-75
2023/05/03 06:03:39;;;;;;;8.43;5.63;;;8.80;99.90;;;;;;5127026;27;20185;-75
2023/05/03 06:06:05;;;;;;;8.00;5.43;;;8.90;99.90;;;;;;5114357;27;20273;-76
2023/05/03 06:08:31;;;;;;;10.00;5.97;;;8.90;99.90;;;;;;5091031;28;20205;-75
2023/05/03 06:11:00;;;;;;;11.47;5.77;;;9.20;99.90;;;;;;5113624;28;20201;-77
2023/05/03 06:13:26;;;;;;;10.00;5.83;;;9.20;99.90;;;;;;5113853;28;20231;-76
2023/05/03 06:15:52;;;;;;;13.93;6.93;;;9.30;99.90;;;;;;5097338;28;20234;-76
2023/05/03 06:18:19;;;;;;;12.47;6.10;;;9.30;99.90;;;;;;5096659;28;20706;-75
2023/05/03 06:20:51;;;;;;;10.23;5.50;;;9.30;99.90;;;;;;5114783;28;20553;-76
2023/05/03 06:23:17;;;;;;;10.73;6.37;;;9.20;99.90;;;;;;5096858;28;20678;-75
2023/05/03 06:25:46;;;;;;;11.07;6.47;;;9.20;99.90;;;;;;5101127;28;20304;-76
2023/05/03 06:28:12;;;;;;;13.17;6.43;;;9.30;99.90;;;;;;5114939;28;20166;-75
2023/05/03 06:30:41;;;;;;;9.20;5.70;;;9.40;99.90;;;;;;5106723;27;20272;-75
2023/05/03 06:33:14;;;;;;;8.87;5.60;;;9.40;99.90;;;;;;5136032;27;20162;-75
2023/05/03 06:35:41;;;;;;;11.40;6.10;;;9.40;99.90;;;;;;5137089;27;20222;-75
2023/05/03 06:38:12;;;;;;;12.83;6.70;;;9.40;99.90;;;;;;5105676;27;20251;-76
2023/05/03 06:40:40;;;;;;;10.57;5.60;;;9.40;99.90;;;;;;5110049;28;20670;-76
2023/05/03 06:43:06;;;;;;;9.30;6.17;;;9.30;99.90;;;;;;5113891;27;20173;-76
2023/05/03 06:45:32;;;;;;;10.50;6.50;;;9.30;99.90;;;;;;5116637;27;20661;-75
2023/05/03 06:47:57;;;;;;;12.10;6.13;;;9.40;99.90;;;;;;5117130;27;20174;-75
2023/05/03 06:50:23;;;;;;;11.37;6.47;;;9.50;99.90;;;;;;5116520;27;20188;-76
2023/05/03 06:52:49;;;;;;;11.77;6.30;;;9.50;99.90;;;;;;5116749;27;20265;-76
2023/05/03 06:55:16;;;;;;;12.70;6.83;;;9.60;99.90;;;;;;5117160;27;20229;-76
2023/05/03 06:57:42;;;;;;;11.77;6.77;;;9.60;99.90;;;;;;5135335;27;20191;-76
2023/05/03 07:00:08;;;;;;;12.37;6.87;;;9.90;99.90;;;;;;5116693;27;20220;-76
2023/05/03 07:02:34;;;;;;;14.73;7.13;;;10.00;99.90;;;;;;5116392;27;20169;-76
2023/05/03 07:05:00;;;;;;;12.53;6.40;;;10.10;99.90;;;;;;5116289;27;20638;-76
2023/05/03 07:07:26;;;;;;;13.07;6.50;;;10.20;99.90;;;;;;5117304;27;20204;-76
2023/05/03 07:09:51;;;;;;;12.23;6.93;;;10.30;99.90;;;;;;5116317;27;20201;-76
2023/05/03 07:12:17;;;;;;;15.83;7.83;;;10.40;99.90;;;;;;5116267;27;20227;-75
2023/05/03 07:14:43;;;;;;;16.80;7.07;;;10.50;99.90;;;;;;5116012;27;20264;-75
2023/05/03 07:17:09;;;;;;;13.20;6.87;;;10.50;99.90;;;;;;5134896;27;20585;-75
2023/05/03 07:19:36;;;;;;;16.13;8.00;;;10.60;99.90;;;;;;5134291;27;20197;-76
2023/05/03 07:22:02;;;;;;;12.13;7.47;;;10.50;99.90;;;;;;5116718;27;20646;-75
2023/05/03 07:24:28;;;;;;;11.77;7.37;;;10.70;99.90;;;;;;5116286;27;20739;-75
2023/05/03 07:26:54;;;;;;;16.10;7.73;;;10.90;99.90;;;;;;5116293;27;20182;-76
2023/05/03 07:29:19;;;;;;;15.33;7.63;;;11.10;99.90;;;;;;5115749;27;20219;-76
2023/05/03 07:31:45;;;;;;;12.73;7.73;;;11.20;99.90;;;;;;5134531;27;20169;-75
2023/05/03 07:34:11;;;;;;;11.93;7.67;;;11.40;99.90;;;;;;5115852;27;20694;-75
2023/05/03 07:36:38;;;;;;;12.80;7.23;;;11.40;99.90;;;;;;5115895;27;20170;-76
2023/05/03 07:39:04;;;;;;;19.30;8.20;;;11.40;99.90;;;;;;5116223;27;20368;-75
2023/05/03 07:41:30;;;;;;;14.73;8.80;;;11.30;99.90;;;;;;5116529;27;20201;-77
2023/05/03 07:43:56;;;;;;;18.90;8.07;;;11.50;99.90;;;;;;5134238;27;20169;-77
2023/05/03 07:46:22;;;;;;;21.30;9.70;;;11.70;99.90;;;;;;5134558;27;20521;-77
2023/05/03 07:48:48;;;;;;;11.63;7.53;;;11.60;99.90;;;;;;5116022;27;20174;-77
2023/05/03 07:51:14;;;;;;;13.63;8.40;;;11.70;99.90;;;;;;5116290;27;20168;-77
2023/05/03 07:53:40;;;;;;;19.23;8.63;;;11.80;99.90;;;;;;5134667;27;20200;-76
2023/05/03 07:56:06;;;;;;;20.97;8.37;;;11.90;99.90;;;;;;5116047;28;20228;-76
2023/05/03 07:58:32;;;;;;;14.90;8.60;;;12.00;99.90;;;;;;5115733;28;20192;-78
2023/05/03 08:00:58;;;;;;;16.70;9.10;;;12.10;99.90;;;;;;5135137;28;20530;-77
2023/05/03 08:03:23;;;;;;;15.37;7.87;;;12.20;99.90;;;;;;5115615;28;20184;-77
2023/05/03 08:05:49;;;;;;;17.77;8.67;;;12.30;99.90;;;;;;5134205;28;20640;-77
2023/05/03 08:08:15;;;;;;;17.00;8.43;;;12.30;99.90;;;;;;5115628;28;20246;-77
2023/05/03 08:10:41;;;;;;;17.83;8.97;;;12.40;99.90;;;;;;5115537;28;20176;-77
2023/05/03 08:13:07;;;;;;;14.10;8.90;;;12.30;99.90;;;;;;5134702;27;20621;-77
2023/05/03 08:15:34;;;;;;;16.80;8.83;;;12.30;99.90;;;;;;5138796;27;20212;-77
2023/05/03 08:18:00;;;;;;;12.50;8.50;;;12.50;99.90;;;;;;5138345;27;20206;-77
2023/05/03 08:20:29;;;;;;;17.67;8.93;;;12.70;99.90;;;;;;5119820;27;20204;-77
2023/05/03 08:22:58;;;;;;;14.50;8.23;;;12.90;99.90;;;;;;5138542;27;20160;-77
2023/05/03 08:25:24;;;;;;;21.40;8.97;;;12.90;99.90;;;;;;5138204;27;20165;-77
2023/05/03 08:27:54;;;;;;;13.10;8.80;;;13.00;99.90;;;;;;5120394;27;20165;-77
2023/05/03 08:30:20;;;;;;;18.60;9.17;;;13.00;99.90;;;;;;5119904;27;20201;-77
2023/05/03 08:32:47;;;;;;;15.03;8.83;;;12.90;99.90;;;;;;5119445;27;20173;-77
2023/05/03 08:35:14;;;;;;;15.07;8.87;;;12.80;99.90;;;;;;5119325;27;20222;-77
2023/05/03 08:37:41;;;;;;;16.13;9.67;;;13.00;99.90;;;;;;5119754;27;20168;-76
2023/05/03 08:40:12;;;;;;;16.73;9.07;;;13.10;99.90;;;;;;5137562;27;20188;-77
2023/05/03 08:42:43;;;;;;;17.70;9.83;;;13.10;99.90;;;;;;5137496;27;20173;-77
2023/05/03 08:45:14;;;;;;;19.10;9.57;;;13.20;99.90;;;;;;5119284;27;20192;-77
2023/05/03 08:47:44;;;;;;;17.40;9.33;;;13.20;99.90;;;;;;5137563;27;20169;-77
2023/05/03 08:50:13;;;;;;;15.07;9.03;;;13.40;99.90;;;;;;5118857;27;20173;-77
2023/05/03 08:52:43;;;;;;;16.97;8.80;;;13.40;99.90;;;;;;5137367;27;20535;-77
2023/05/03 08:55:09;;;;;;;15.43;9.40;;;13.60;99.90;;;;;;5137543;27;20496;-77
2023/05/03 08:57:36;;;;;;;15.37;9.67;;;13.70;99.90;;;;;;5119075;27;20177;-77
2023/05/03 09:00:05;;;;;;;13.23;9.30;;;13.80;99.30;;;;;;5119531;27;20201;-76
2023/05/03 09:02:33;;;;;;;11.60;8.37;;;14.10;98.60;;;;;;5118894;27;20242;-77
2023/05/03 09:04:59;;;;;;;13.27;8.80;;;14.20;98.20;;;;;;5137113;27;20165;-77
2023/05/03 09:07:26;;;;;;;14.90;8.53;;;14.00;98.10;;;;;;5119224;27;20582;-77
2023/05/03 09:09:53;;;;;;;13.17;8.33;;;14.10;98.30;;;;;;5119121;27;20202;-76
2023/05/03 09:12:36;;;;;;;13.87;8.30;;;14.40;97.20;;;;;;5119289;27;20169;-77
2023/05/03 09:15:02;;;;;;;13.03;8.40;;;14.30;97.10;;;;;;5137714;27;20169;-77
2023/05/03 09:17:28;;;;;;;14.20;8.97;;;14.40;97.00;;;;;;5136907;27;20289;-76
2023/05/03 09:19:57;;;;;;;15.87;9.90;;;14.50;96.90;;;;;;5137108;27;20205;-77
2023/05/03 09:22:29;;;;;;;12.93;8.53;;;14.60;96.40;;;;;;5119152;27;20192;-76
2023/05/03 09:24:57;;;;;;;25.70;9.80;;;14.60;96.60;;;;;;5136717;27;20164;-77
2023/05/03 09:27:24;;;;;;;14.37;8.47;;;14.40;96.30;;;;;;5137087;27;20153;-77
2023/05/03 09:29:51;;;;;;;12.10;8.63;;;14.40;96.60;;;;;;5137439;27;20153;-77
2023/05/03 09:32:17;;;;;;;13.07;8.13;;;14.50;96.30;;;;;;5118805;27;20201;-77
2023/05/03 09:34:44;;;;;;;14.73;8.90;;;14.70;96.00;;;;;;5136916;27;20217;-77
2023/05/03 09:37:12;;;;;;;13.83;9.27;;;14.80;95.60;;;;;;5136536;27;20184;-78
2023/05/03 09:39:40;;;;;;;15.37;8.90;;;14.90;95.60;;;;;;5118172;27;20189;-78
2023/05/03 09:42:16;;;;;;;15.67;8.73;;;15.00;95.40;;;;;;5136380;27;20155;-77
2023/05/03 09:44:52;;;;;;;11.43;7.77;;;15.10;95.00;;;;;;5118463;27;20678;-78
2023/05/03 09:47:20;;;;;;;15.70;9.47;;;15.20;94.30;;;;;;5136084;27;20714;-78
2023/05/03 09:49:46;;;;;;;14.67;8.13;;;15.20;94.40;;;;;;5136655;27;20173;-77
2023/05/03 09:52:12;;;;;;;12.50;7.67;;;15.20;94.60;;;;;;5118378;27;20229;-76
2023/05/03 09:54:38;;;;;;;12.13;7.20;;;15.20;94.00;;;;;;5119059;27;20169;-77
2023/05/03 09:57:06;;;;;;;13.27;8.37;;;15.20;94.20;;;;;;5136796;27;20536;-76
2023/05/03 09:59:33;;;;;;;12.23;7.97;;;15.20;94.10;;;;;;5136141;27;20201;-77
2023/05/03 10:02:02;;;;;;;14.00;8.57;;;15.10;94.40;;;;;;5117694;27;20564;-76
2023/05/03 10:04:32;;;;;;;11.77;7.77;;;15.00;94.30;;;;;;5117593;27;20173;-77
2023/05/03 10:07:00;;;;;;;19.67;8.43;;;15.20;94.10;;;;;;5136431;27;20174;-76
2023/05/03 10:09:39;;;;;;;15.50;8.50;;;15.20;94.20;;;;;;5136117;27;20192;-77
2023/05/03 10:12:08;;;;;;;11.97;7.77;;;15.20;94.40;;;;;;5136411;27;20250;-78
2023/05/03 10:14:35;;;;;;;12.37;8.20;;;15.20;94.40;;;;;;5135972;27;20217;-76
2023/05/03 10:17:08;;;;;;;17.77;9.07;;;15.30;94.20;;;;;;5135778;27;20597;-76
2023/05/03 10:19:50;;;;;;;22.30;8.33;;;15.40;93.90;;;;;;5135711;27;20204;-77
2023/05/03 10:22:17;;;;;;;17.60;9.10;;;15.60;93.60;;;;;;5117330;27;20189;-77
2023/05/03 10:25:01;;;;;;;14.63;9.10;;;15.80;93.80;;;;;;5117352;27;20232;-75
2023/05/03 10:27:43;;;;;;;20.83;9.17;;;15.90;93.80;;;;;;5117270;27;20189;-75
2023/05/03 10:30:31;;;;;;;13.97;8.63;;;15.80;93.30;;;;;;5136105;27;20192;-75
2023/05/03 10:33:18;;;;;;;13.40;8.70;;;16.00;93.10;;;;;;5116879;27;20216;-75
2023/05/03 10:35:51;;;;;;;16.00;9.73;;;15.80;93.10;;;;;;5099524;27;20181;-75
2023/05/03 10:38:28;;;;;;;15.67;9.00;;;15.70;93.50;;;;;;5135437;27;20172;-75
2023/05/03 10:40:55;;;;;;;11.33;8.20;;;15.80;93.80;;;;;;5117239;27;20744;-76
2023/05/03 10:43:32;;;;;;;14.90;8.80;;;15.80;93.60;;;;;;5117038;27;20178;-75
2023/05/03 10:46:02;;;;;;;12.80;8.63;;;16.00;93.30;;;;;;5117275;27;20172;-75
2023/05/03 10:48:28;;;;;;;12.07;8.80;;;16.20;93.00;;;;;;5135295;27;20172;-75
2023/05/03 10:50:55;;;;;;;15.13;9.33;;;16.40;92.40;;;;;;5116637;27;20229;-76
2023/05/03 10:53:32;;;;;;;15.57;9.97;;;16.40;92.40;;;;;;5116870;27;20177;-75
2023/05/03 10:56:09;;;;;;;23.83;9.37;;;16.70;92.00;;;;;;5135126;27;20542;-75
2023/05/03 10:58:42;;;;;;;14.43;9.90;;;16.70;92.20;;;;;;5134479;27;20201;-75
2023/05/03 11:01:13;;;;;;;17.87;9.53;;;16.80;91.60;;;;;;5116171;27;20201;-75
2023/05/03 11:03:54;;;;;;;11.90;8.60;;;17.00;91.20;;;;;;5134740;27;20176;-76
2023/05/03 11:06:34;;;;;;;12.60;8.83;;;17.20;90.70;;;;;;5116700;27;20262;-76
2023/05/03 11:09:01;;;;;;;14.43;9.20;;;17.70;89.50;;;;;;5134469;27;20187;-76
2023/05/03 11:11:27;;;;;;;12.10;9.20;;;17.90;89.50;;;;;;5134805;27;20152;-77
2023/05/03 11:13:53;;;;;;;14.10;9.10;;;18.20;88.90;;;;;;5116113;27;20167;-74
2023/05/03 11:16:19;;;;;;;12.87;8.50;;;18.70;88.90;;;;;;5134525;27;20607;-74
2023/05/03 11:18:47;;;;;;;12.97;9.00;;;18.90;89.40;;;;;;5116270;27;20254;-76
2023/05/03 11:21:14;;;;;;;13.47;8.93;;;18.90;88.10;;;;;;5116101;27;20218;-77
2023/05/03 11:23:41;;;;;;;12.67;9.23;;;18.80;85.40;;;;;;5116333;27;20172;-76
2023/05/03 11:26:08;;;;;;;12.17;9.20;;;18.90;85.60;;;;;;5116513;27;20266;-76
2023/05/03 11:28:36;;;;;;;14.70;9.67;;;19.10;85.50;;;;;;5116350;27;20176;-76
2023/05/03 11:31:02;;;;;;;13.93;8.97;;;19.50;84.20;;;;;;5137355;27;20244;-75
2023/05/03 11:33:30;;;;;;;15.37;9.03;;;20.00;83.00;;;;;;5116092;27;20196;-76
2023/05/03 11:35:56;;;;;;;12.30;8.83;;;20.20;81.70;;;;;;5116180;27;20177;-75
2023/05/03 11:38:22;;;;;;;13.27;9.60;;;19.90;81.60;;;;;;5116026;27;20223;-75
2023/05/03 11:40:48;;;;;;;13.00;8.73;;;19.90;81.80;;;;;;5116882;28;20584;-76
2023/05/03 11:43:14;;;;;;;13.27;7.80;;;20.10;81.10;;;;;;5116639;27;20266;-76
2023/05/03 11:45:46;;;;;;;12.80;8.53;;;20.20;81.60;;;;;;5116865;27;20250;-75
2023/05/03 11:48:13;;;;;;;11.07;8.60;;;20.80;79.80;;;;;;5115425;27;20176;-75
2023/05/03 11:50:46;;;;;;;17.07;9.07;;;21.20;79.20;;;;;;5115528;27;20272;-74
2023/05/03 11:53:13;;;;;;;18.30;9.43;;;21.30;78.10;;;;;;5115886;27;20177;-76
2023/05/03 11:55:47;;;;;;;11.03;8.10;;;20.40;78.60;;;;;;5133775;27;20703;-75
2023/05/03 11:58:18;;;;;;;14.80;9.03;;;20.40;79.80;;;;;;5115528;27;20173;-76
2023/05/03 12:00:46;;;;;;;13.70;7.93;;;20.50;78.10;;;;;;5115129;27;20201;-76
2023/05/03 12:03:23;;;;;;;13.63;8.40;;;20.80;78.80;;;;;;5115691;28;20165;-76
2023/05/03 12:05:53;;;;;;;16.30;9.03;;;21.20;77.40;;;;;;5133697;28;20173;-75
2023/05/03 12:08:20;;;;;;;15.17;8.30;;;21.20;76.60;;;;;;5116734;28;20654;-75
2023/05/03 12:10:47;;;;;;;12.30;8.17;;;21.10;76.00;;;;;;5135773;28;20169;-76
2023/05/03 12:13:13;;;;;;;13.83;7.63;;;21.60;76.90;;;;;;5116441;28;20238;-75
2023/05/03 12:15:39;;;;;;;12.13;8.17;;;21.30;74.80;;;;;;5115244;28;20177;-76
2023/05/03 12:18:11;;;;;;;9.90;7.23;;;21.40;73.80;;;;;;5115401;28;20642;-75
2023/05/03 12:20:38;;;;;;;9.53;7.30;;;21.90;72.40;;;;;;5114940;28;20201;-76
2023/05/03 12:23:08;;;;;;;16.87;8.37;;;21.30;72.50;;;;;;5115660;28;20580;-76
2023/05/03 12:25:35;;;;;;;11.70;7.77;;;22.10;71.20;;;;;;5115514;28;20177;-76
2023/05/03 12:28:06;;;;;;;10.80;7.07;;;22.50;70.90;;;;;;5134118;28;20170;-76
2023/05/03 12:30:32;;;;;;;12.60;8.30;;;22.70;70.40;;;;;;5115557;28;20665;-76
2023/05/03 12:32:59;;;;;;;14.47;8.47;;;22.30;70.30;;;;;;5115173;28;20505;-75
2023/05/03 12:35:25;;;;;;;14.23;8.00;;;21.90;70.80;;;;;;5101537;28;20698;-74
2023/05/03 12:37:52;;;;;;;11.80;7.83;;;22.60;70.80;;;;;;5113416;28;20241;-76
2023/05/03 12:40:19;;;;;;;13.30;8.33;;;22.40;69.20;;;;;;5094100;28;20205;-75
2023/05/03 12:42:45;;;;;;;10.93;7.43;;;22.50;68.00;;;;;;5097575;28;20174;-75
2023/05/03 12:45:12;;;;;;;11.07;6.60;;;22.80;68.00;;;;;;5095170;28;20181;-75
2023/05/03 12:47:47;;;;;;;13.10;7.27;;;23.40;66.70;;;;;;5111702;28;20209;-75